sensor_id;sensor_type;location;lat;lon;timestamp;P1;durP1;ratioP1;P2;durP2;ratioP2
78781;SDS011;68126;55.748;48.742;2023-05-13T00:04:37;7.10;;;5.12;;
78781;SDS011;68126;55.748;48.742;2023-05-13T00:10:02;7.58;;;4.40;;
78781;SDS011;68126;55.748;48.742;2023-05-13T00:15:27;7.40;;;3.67;;
78781;SDS011;68126;55.748;48.742;2023-05-13T00:20:52;8.70;;;5.22;;
78781;SDS011;68126;55.748;48.742;2023-05-13T00:26:17;9.53;;;5.03;;
78781;SDS011;68126;55.748;48.742;2023-05-13T00:31:42;5.80;;;3.83;;
78781;SDS011;68126;55.748;48.742;2023-05-13T00:37:07;8.60;;;3.75;;
78781;SDS011;68126;55.748;48.742;2023-05-13T00:42:33;6.22;;;3.60;;
78781;SDS011;68126;55.748;48.742;2023-05-13T00:47:58;6.05;;;2.85;;
78781;SDS011;68126;55.748;48.742;2023-05-13T00:53:22;4.70;;;4.05;;
78781;SDS011;68126;55.748;48.742;2023-05-13T00:58:47;6.90;;;4.20;;
78781;SDS011;68126;55.748;48.742;2023-05-13T01:09:59;8.25;;;4.78;;
78781;SDS011;68126;55.748;48.742;2023-05-13T01:15:24;7.47;;;4.50;;
78781;SDS011;68126;55.748;48.742;2023-05-13T01:20:49;9.43;;;4.90;;
78781;SDS011;68126;55.748;48.742;2023-05-13T01:26:13;6.22;;;4.78;;
78781;SDS011;68126;55.748;48.742;2023-05-13T01:31:38;6.58;;;5.47;;
78781;SDS011;68126;55.748;48.742;2023-05-13T01:37:04;7.45;;;4.85;;
78781;SDS011;68126;55.748;48.742;2023-05-13T01:42:29;8.63;;;5.70;;
78781;SDS011;68126;55.748;48.742;2023-05-13T01:47:55;8.13;;;5.75;;
78781;SDS011;68126;55.748;48.742;2023-05-13T01:53:20;7.78;;;4.92;;
78781;SDS011;68126;55.748;48.742;2023-05-13T01:58:45;8.35;;;5.03;;
78781;SDS011;68126;55.748;48.742;2023-05-13T02:04:09;6.55;;;4.90;;
78781;SDS011;68126;55.748;48.742;2023-05-13T02:09:34;6.58;;;4.80;;
78781;SDS011;68126;55.748;48.742;2023-05-13T02:14:59;7.42;;;4.50;;
78781;SDS011;68126;55.748;48.742;2023-05-13T02:20:26;6.20;;;5.42;;
78781;SDS011;68126;55.748;48.742;2023-05-13T02:26:11;6.42;;;4.85;;
78781;SDS011;68126;55.748;48.742;2023-05-13T02:31:36;5.67;;;4.33;;
78781;SDS011;68126;55.748;48.742;2023-05-13T02:37:02;6.00;;;3.90;;
78781;SDS011;68126;55.748;48.742;2023-05-13T02:42:27;5.25;;;4.35;;
78781;SDS011;68126;55.748;48.742;2023-05-13T02:47:51;5.20;;;4.08;;
78781;SDS011;68126;55.748;48.742;2023-05-13T02:53:17;9.40;;;5.22;;
78781;SDS011;68126;55.748;48.742;2023-05-13T02:58:41;4.72;;;3.92;;
78781;SDS011;68126;55.748;48.742;2023-05-13T03:04:06;6.78;;;4.35;;
78781;SDS011;68126;55.748;48.742;2023-05-13T03:09:31;13.25;;;4.55;;
78781;SDS011;68126;55.748;48.742;2023-05-13T03:14:56;5.45;;;3.65;;
78781;SDS011;68126;55.748;48.742;2023-05-13T03:20:21;7.08;;;4.42;;
78781;SDS011;68126;55.748;48.742;2023-05-13T03:26:21;7.37;;;4.67;;
78781;SDS011;68126;55.748;48.742;2023-05-13T03:31:12;7.97;;;4.28;;
78781;SDS011;68126;55.748;48.742;2023-05-13T03:36:37;8.65;;;4.97;;
78781;SDS011;68126;55.748;48.742;2023-05-13T03:42:02;6.10;;;4.60;;
78781;SDS011;68126;55.748;48.742;2023-05-13T03:47:26;8.40;;;5.15;;
78781;SDS011;68126;55.748;48.742;2023-05-13T03:52:51;6.33;;;4.80;;
78781;SDS011;68126;55.748;48.742;2023-05-13T03:58:17;6.15;;;3.30;;
78781;SDS011;68126;55.748;48.742;2023-05-13T04:03:45;7.70;;;4.22;;
78781;SDS011;68126;55.748;48.742;2023-05-13T04:09:11;13.05;;;5.42;;
78781;SDS011;68126;55.748;48.742;2023-05-13T04:14:36;8.30;;;4.22;;
78781;SDS011;68126;55.748;48.742;2023-05-13T04:20:03;11.28;;;5.28;;
78781;SDS011;68126;55.748;48.742;2023-05-13T04:25:28;6.25;;;3.72;;
78781;SDS011;68126;55.748;48.742;2023-05-13T04:30:53;8.45;;;3.60;;
78781;SDS011;68126;55.748;48.742;2023-05-13T04:36:18;6.25;;;3.35;;
78781;SDS011;68126;55.748;48.742;2023-05-13T04:41:43;4.42;;;3.75;;
78781;SDS011;68126;55.748;48.742;2023-05-13T04:47:07;6.35;;;3.30;;
78781;SDS011;68126;55.748;48.742;2023-05-13T04:57:58;3.75;;;2.92;;
78781;SDS011;68126;55.748;48.742;2023-05-13T05:08:49;5.17;;;3.90;;
78781;SDS011;68126;55.748;48.742;2023-05-13T05:14:14;5.35;;;3.35;;
78781;SDS011;68126;55.748;48.742;2023-05-13T05:19:39;6.28;;;2.33;;
78781;SDS011;68126;55.748;48.742;2023-05-13T05:25:04;4.25;;;3.20;;
78781;SDS011;68126;55.748;48.742;2023-05-13T05:30:29;6.60;;;3.27;;
78781;SDS011;68126;55.748;48.742;2023-05-13T05:41:23;5.35;;;2.92;;
78781;SDS011;68126;55.748;48.742;2023-05-13T05:46:48;4.58;;;2.87;;
78781;SDS011;68126;55.748;48.742;2023-05-13T05:52:13;3.62;;;3.33;;
78781;SDS011;68126;55.748;48.742;2023-05-13T05:57:38;3.20;;;2.45;;
78781;SDS011;68126;55.748;48.742;2023-05-13T06:03:03;6.58;;;2.12;;
78781;SDS011;68126;55.748;48.742;2023-05-13T06:08:28;6.12;;;2.17;;
78781;SDS011;68126;55.748;48.742;2023-05-13T06:13:53;4.65;;;2.60;;
78781;SDS011;68126;55.748;48.742;2023-05-13T06:19:18;4.55;;;2.42;;
78781;SDS011;68126;55.748;48.742;2023-05-13T06:24:43;4.25;;;1.42;;
78781;SDS011;68126;55.748;48.742;2023-05-13T06:30:08;3.65;;;2.70;;
78781;SDS011;68126;55.748;48.742;2023-05-13T06:36:03;4.90;;;2.80;;
78781;SDS011;68126;55.748;48.742;2023-05-13T06:40:59;6.78;;;2.47;;
78781;SDS011;68126;55.748;48.742;2023-05-13T06:46:24;5.12;;;2.10;;
78781;SDS011;68126;55.748;48.742;2023-05-13T06:51:49;4.65;;;2.35;;
78781;SDS011;68126;55.748;48.742;2023-05-13T06:57:15;5.05;;;2.65;;
78781;SDS011;68126;55.748;48.742;2023-05-13T07:02:40;3.17;;;2.58;;
78781;SDS011;68126;55.748;48.742;2023-05-13T07:08:05;4.55;;;2.80;;
78781;SDS011;68126;55.748;48.742;2023-05-13T07:13:30;2.90;;;2.52;;
78781;SDS011;68126;55.748;48.742;2023-05-13T07:18:58;5.25;;;2.92;;
78781;SDS011;68126;55.748;48.742;2023-05-13T07:24:22;4.25;;;3.22;;
78781;SDS011;68126;55.748;48.742;2023-05-13T07:40:56;2.72;;;1.92;;
78781;SDS011;68126;55.748;48.742;2023-05-13T07:46:21;5.35;;;3.10;;
78781;SDS011;68126;55.748;48.742;2023-05-13T07:52:06;4.45;;;3.62;;
78781;SDS011;68126;55.748;48.742;2023-05-13T08:03:19;3.50;;;2.33;;
78781;SDS011;68126;55.748;48.742;2023-05-13T08:14:19;4.95;;;2.27;;
78781;SDS011;68126;55.748;48.742;2023-05-13T08:19:45;3.55;;;2.55;;
78781;SDS011;68126;55.748;48.742;2023-05-13T08:25:30;3.15;;;1.92;;
78781;SDS011;68126;55.748;48.742;2023-05-13T08:36:42;5.60;;;2.40;;
78781;SDS011;68126;55.748;48.742;2023-05-13T08:42:43;2.77;;;1.77;;
78781;SDS011;68126;55.748;48.742;2023-05-13T08:53:20;6.87;;;2.15;;
78781;SDS011;68126;55.748;48.742;2023-05-13T08:58:48;2.98;;;1.92;;
78781;SDS011;68126;55.748;48.742;2023-05-13T09:04:14;4.70;;;3.55;;
78781;SDS011;68126;55.748;48.742;2023-05-13T09:15:08;3.08;;;2.80;;
78781;SDS011;68126;55.748;48.742;2023-05-13T09:20:35;3.45;;;2.47;;
78781;SDS011;68126;55.748;48.742;2023-05-13T09:25:59;3.62;;;1.95;;
78781;SDS011;68126;55.748;48.742;2023-05-13T09:37:09;3.08;;;1.77;;
78781;SDS011;68126;55.748;48.742;2023-05-13T09:53:48;3.60;;;2.55;;
78781;SDS011;68126;55.748;48.742;2023-05-13T09:59:16;2.27;;;1.92;;
78781;SDS011;68126;55.748;48.742;2023-05-13T10:04:41;9.10;;;3.15;;
78781;SDS011;68126;55.748;48.742;2023-05-13T10:10:08;4.37;;;2.42;;
78781;SDS011;68126;55.748;48.742;2023-05-13T10:15:35;5.97;;;2.37;;
78781;SDS011;68126;55.748;48.742;2023-05-13T10:26:26;3.00;;;2.00;;
78781;SDS011;68126;55.748;48.742;2023-05-13T10:31:53;6.08;;;2.02;;
78781;SDS011;68126;55.748;48.742;2023-05-13T10:48:54;4.22;;;1.60;;
78781;SDS011;68126;55.748;48.742;2023-05-13T10:54:19;3.47;;;2.10;;
78781;SDS011;68126;55.748;48.742;2023-05-13T11:05:31;3.05;;;1.77;;
78781;SDS011;68126;55.748;48.742;2023-05-13T11:16:46;4.03;;;1.67;;
78781;SDS011;68126;55.748;48.742;2023-05-13T11:27:55;2.37;;;1.60;;
78781;SDS011;68126;55.748;48.742;2023-05-13T11:33:21;6.15;;;2.25;;
78781;SDS011;68126;55.748;48.742;2023-05-13T11:38:46;3.90;;;2.25;;
78781;SDS011;68126;55.748;48.742;2023-05-13T11:44:11;4.20;;;2.45;;
78781;SDS011;68126;55.748;48.742;2023-05-13T12:01:05;2.08;;;0.80;;
78781;SDS011;68126;55.748;48.742;2023-05-13T12:06:30;3.25;;;1.82;;
78781;SDS011;68126;55.748;48.742;2023-05-13T12:11:54;3.83;;;1.32;;
78781;SDS011;68126;55.748;48.742;2023-05-13T12:17:19;15.25;;;2.72;;
78781;SDS011;68126;55.748;48.742;2023-05-13T12:28:14;3.37;;;2.65;;
78781;SDS011;68126;55.748;48.742;2023-05-13T12:33:40;4.65;;;1.98;;
78781;SDS011;68126;55.748;48.742;2023-05-13T12:39:06;5.22;;;2.30;;
78781;SDS011;68126;55.748;48.742;2023-05-13T12:49:57;3.17;;;1.50;;
78781;SDS011;68126;55.748;48.742;2023-05-13T12:55:23;4.47;;;2.33;;
78781;SDS011;68126;55.748;48.742;2023-05-13T13:01:07;4.35;;;2.52;;
78781;SDS011;68126;55.748;48.742;2023-05-13T13:07:04;5.00;;;2.55;;
78781;SDS011;68126;55.748;48.742;2023-05-13T13:11:59;3.72;;;2.62;;
78781;SDS011;68126;55.748;48.742;2023-05-13T13:17:23;5.00;;;3.62;;
78781;SDS011;68126;55.748;48.742;2023-05-13T13:22:47;6.17;;;3.05;;
78781;SDS011;68126;55.748;48.742;2023-05-13T13:28:12;4.15;;;2.55;;
78781;SDS011;68126;55.748;48.742;2023-05-13T13:33:39;4.20;;;1.70;;
78781;SDS011;68126;55.748;48.742;2023-05-13T13:39:03;5.17;;;4.67;;
78781;SDS011;68126;55.748;48.742;2023-05-13T13:44:28;3.60;;;2.33;;
78781;SDS011;68126;55.748;48.742;2023-05-13T13:49:52;5.75;;;2.75;;
78781;SDS011;68126;55.748;48.742;2023-05-13T13:55:18;2.72;;;1.92;;
78781;SDS011;68126;55.748;48.742;2023-05-13T14:00:43;6.05;;;3.00;;
78781;SDS011;68126;55.748;48.742;2023-05-13T14:06:10;4.50;;;1.82;;
78781;SDS011;68126;55.748;48.742;2023-05-13T14:11:35;5.70;;;3.75;;
78781;SDS011;68126;55.748;48.742;2023-05-13T14:17:20;8.45;;;3.62;;
78781;SDS011;68126;55.748;48.742;2023-05-13T14:22:45;8.33;;;2.83;;
78781;SDS011;68126;55.748;48.742;2023-05-13T14:28:09;6.62;;;1.70;;
78781;SDS011;68126;55.748;48.742;2023-05-13T14:33:35;6.65;;;3.12;;
78781;SDS011;68126;55.748;48.742;2023-05-13T14:39:00;6.15;;;3.77;;
78781;SDS011;68126;55.748;48.742;2023-05-13T14:44:25;4.47;;;2.50;;
78781;SDS011;68126;55.748;48.742;2023-05-13T14:49:51;7.08;;;2.12;;
78781;SDS011;68126;55.748;48.742;2023-05-13T14:55:16;8.58;;;3.42;;
78781;SDS011;68126;55.748;48.742;2023-05-13T15:00:41;5.67;;;3.10;;
78781;SDS011;68126;55.748;48.742;2023-05-13T15:06:06;5.35;;;3.05;;
78781;SDS011;68126;55.748;48.742;2023-05-13T15:11:31;7.45;;;2.12;;
78781;SDS011;68126;55.748;48.742;2023-05-13T15:16:55;3.95;;;3.55;;
78781;SDS011;68126;55.748;48.742;2023-05-13T15:22:21;9.78;;;4.00;;
78781;SDS011;68126;55.748;48.742;2023-05-13T15:27:45;8.23;;;2.83;;
78781;SDS011;68126;55.748;48.742;2023-05-13T15:33:11;8.48;;;3.27;;
78781;SDS011;68126;55.748;48.742;2023-05-13T15:38:56;10.90;;;4.80;;
78781;SDS011;68126;55.748;48.742;2023-05-13T15:44:21;7.58;;;4.22;;
78781;SDS011;68126;55.748;48.742;2023-05-13T15:49:46;8.90;;;4.00;;
78781;SDS011;68126;55.748;48.742;2023-05-13T15:55:12;6.62;;;3.27;;
78781;SDS011;68126;55.748;48.742;2023-05-13T16:00:36;9.48;;;3.67;;
78781;SDS011;68126;55.748;48.742;2023-05-13T16:06:01;4.53;;;2.72;;
78781;SDS011;68126;55.748;48.742;2023-05-13T16:11:26;4.35;;;3.17;;
78781;SDS011;68126;55.748;48.742;2023-05-13T16:16:51;5.30;;;2.55;;
78781;SDS011;68126;55.748;48.742;2023-05-13T16:28:01;4.95;;;2.92;;
78781;SDS011;68126;55.748;48.742;2023-05-13T16:33:25;3.90;;;2.70;;
78781;SDS011;68126;55.748;48.742;2023-05-13T16:38:51;5.80;;;5.08;;
78781;SDS011;68126;55.748;48.742;2023-05-13T16:44:18;10.60;;;3.95;;
78781;SDS011;68126;55.748;48.742;2023-05-13T16:49:53;8.45;;;4.28;;
78781;SDS011;68126;55.748;48.742;2023-05-13T16:55:19;5.25;;;3.37;;
78781;SDS011;68126;55.748;48.742;2023-05-13T17:00:46;5.03;;;2.20;;
78781;SDS011;68126;55.748;48.742;2023-05-13T17:06:13;5.72;;;3.50;;
78781;SDS011;68126;55.748;48.742;2023-05-13T17:11:38;6.55;;;3.47;;
78781;SDS011;68126;55.748;48.742;2023-05-13T17:17:07;7.92;;;3.92;;
78781;SDS011;68126;55.748;48.742;2023-05-13T17:22:31;9.28;;;4.67;;
78781;SDS011;68126;55.748;48.742;2023-05-13T17:27:58;10.30;;;3.83;;
78781;SDS011;68126;55.748;48.742;2023-05-13T17:33:23;8.25;;;5.28;;
78781;SDS011;68126;55.748;48.742;2023-05-13T17:44:35;13.40;;;8.83;;
78781;SDS011;68126;55.748;48.742;2023-05-13T17:50:01;13.05;;;10.08;;
78781;SDS011;68126;55.748;48.742;2023-05-13T17:55:27;11.08;;;7.70;;
78781;SDS011;68126;55.748;48.742;2023-05-13T18:00:52;8.43;;;5.50;;
78781;SDS011;68126;55.748;48.742;2023-05-13T18:06:27;7.95;;;5.30;;
78781;SDS011;68126;55.748;48.742;2023-05-13T18:11:52;8.10;;;5.33;;
78781;SDS011;68126;55.748;48.742;2023-05-13T18:17:19;6.75;;;5.50;;
78781;SDS011;68126;55.748;48.742;2023-05-13T18:23:03;8.63;;;4.10;;
78781;SDS011;68126;55.748;48.742;2023-05-13T18:28:28;6.53;;;5.58;;
78781;SDS011;68126;55.748;48.742;2023-05-13T18:33:53;6.83;;;4.75;;
78781;SDS011;68126;55.748;48.742;2023-05-13T18:39:19;6.67;;;3.80;;
78781;SDS011;68126;55.748;48.742;2023-05-13T18:44:44;5.80;;;4.75;;
78781;SDS011;68126;55.748;48.742;2023-05-13T18:50:09;4.80;;;4.30;;
78781;SDS011;68126;55.748;48.742;2023-05-13T18:55:34;5.87;;;3.92;;
78781;SDS011;68126;55.748;48.742;2023-05-13T19:01:04;8.00;;;3.45;;
78781;SDS011;68126;55.748;48.742;2023-05-13T19:06:29;5.15;;;3.87;;
78781;SDS011;68126;55.748;48.742;2023-05-13T19:11:54;8.03;;;4.17;;
78781;SDS011;68126;55.748;48.742;2023-05-13T19:22:46;6.67;;;4.15;;
78781;SDS011;68126;55.748;48.742;2023-05-13T19:28:11;6.37;;;3.58;;
78781;SDS011;68126;55.748;48.742;2023-05-13T19:33:38;6.00;;;3.80;;
78781;SDS011;68126;55.748;48.742;2023-05-13T19:39:02;6.25;;;4.70;;
78781;SDS011;68126;55.748;48.742;2023-05-13T19:44:27;4.22;;;3.58;;
78781;SDS011;68126;55.748;48.742;2023-05-13T19:49:54;5.25;;;3.80;;
78781;SDS011;68126;55.748;48.742;2023-05-13T20:00:46;6.33;;;3.67;;
78781;SDS011;68126;55.748;48.742;2023-05-13T20:06:10;4.75;;;3.60;;
78781;SDS011;68126;55.748;48.742;2023-05-13T20:11:35;5.92;;;4.90;;
78781;SDS011;68126;55.748;48.742;2023-05-13T20:17:02;5.17;;;4.50;;
78781;SDS011;68126;55.748;48.742;2023-05-13T20:22:26;5.35;;;4.28;;
78781;SDS011;68126;55.748;48.742;2023-05-13T20:27:53;7.47;;;4.55;;
78781;SDS011;68126;55.748;48.742;2023-05-13T20:34:08;6.12;;;4.72;;
78781;SDS011;68126;55.748;48.742;2023-05-13T20:39:05;5.62;;;4.42;;
78781;SDS011;68126;55.748;48.742;2023-05-13T20:44:50;4.55;;;3.87;;
78781;SDS011;68126;55.748;48.742;2023-05-13T20:50:15;4.72;;;4.33;;
78781;SDS011;68126;55.748;48.742;2023-05-13T20:55:39;5.92;;;4.85;;
78781;SDS011;68126;55.748;48.742;2023-05-13T21:01:04;3.62;;;2.70;;
78781;SDS011;68126;55.748;48.742;2023-05-13T21:06:29;4.45;;;3.90;;
78781;SDS011;68126;55.748;48.742;2023-05-13T21:11:54;5.17;;;4.67;;
78781;SDS011;68126;55.748;48.742;2023-05-13T21:17:20;5.25;;;3.70;;
78781;SDS011;68126;55.748;48.742;2023-05-13T21:22:45;5.72;;;5.17;;
78781;SDS011;68126;55.748;48.742;2023-05-13T21:28:10;5.83;;;4.90;;
78781;SDS011;68126;55.748;48.742;2023-05-13T21:34:00;7.28;;;5.00;;
78781;SDS011;68126;55.748;48.742;2023-05-13T21:39:25;5.35;;;4.50;;
78781;SDS011;68126;55.748;48.742;2023-05-13T21:44:50;5.75;;;4.72;;
78781;SDS011;68126;55.748;48.742;2023-05-13T21:50:14;7.15;;;4.85;;
78781;SDS011;68126;55.748;48.742;2023-05-13T21:55:39;5.35;;;4.58;;
78781;SDS011;68126;55.748;48.742;2023-05-13T22:01:04;6.65;;;5.95;;
78781;SDS011;68126;55.748;48.742;2023-05-13T22:06:29;6.12;;;4.45;;
78781;SDS011;68126;55.748;48.742;2023-05-13T22:11:54;5.67;;;5.08;;
78781;SDS011;68126;55.748;48.742;2023-05-13T22:17:19;8.50;;;5.30;;
78781;SDS011;68126;55.748;48.742;2023-05-13T22:22:44;5.37;;;4.58;;
78781;SDS011;68126;55.748;48.742;2023-05-13T22:28:08;5.95;;;5.35;;
78781;SDS011;68126;55.748;48.742;2023-05-13T22:33:33;7.10;;;4.97;;
78781;SDS011;68126;55.748;48.742;2023-05-13T22:38:58;6.30;;;5.53;;
78781;SDS011;68126;55.748;48.742;2023-05-13T22:44:23;6.92;;;5.35;;
78781;SDS011;68126;55.748;48.742;2023-05-13T22:49:47;7.67;;;5.22;;
78781;SDS011;68126;55.748;48.742;2023-05-13T22:55:12;5.35;;;4.72;;
78781;SDS011;68126;55.748;48.742;2023-05-13T23:00:36;6.35;;;4.85;;
78781;SDS011;68126;55.748;48.742;2023-05-13T23:06:01;5.70;;;4.97;;
78781;SDS011;68126;55.748;48.742;2023-05-13T23:11:26;6.37;;;5.17;;
78781;SDS011;68126;55.748;48.742;2023-05-13T23:17:11;6.05;;;5.53;;
78781;SDS011;68126;55.748;48.742;2023-05-13T23:22:35;3.72;;;2.33;;
78781;SDS011;68126;55.748;48.742;2023-05-13T23:28:00;5.08;;;3.83;;
78781;SDS011;68126;55.748;48.742;2023-05-13T23:33:24;4.67;;;3.98;;
78781;SDS011;68126;55.748;48.742;2023-05-13T23:38:49;4.37;;;3.83;;
78781;SDS011;68126;55.748;48.742;2023-05-13T23:44:14;6.35;;;5.75;;
78781;SDS011;68126;55.748;48.742;2023-05-13T23:49:39;5.35;;;4.85;;
78781;SDS011;68126;55.748;48.742;2023-05-13T23:55:04;5.22;;;4.25;;
